Time;durP1;ratioP1;P1;durP2;ratioP2;P2;SDS_P1;SDS_P2;PMS_P1;PMS_P2;Temp;Humidity;BMP_temperature;BMP_pressure;BME280_temperature;BME280_humidity;BME280_pressure;Samples;Min_cycle;Max_cycle;Signal;HPM_P1;HPM_P2
2022/05/18 00:00:32;;;;;;;;;7.00;7.00;;;;;;;;5103531;27;45393;-75
2022/05/18 00:03:03;;;;;;;;;9.67;9.67;;;;;;;;5102151;27;47426;-74
2022/05/18 00:05:29;;;;;;;;;9.67;9.67;;;;;;;;5103358;27;45243;-74
2022/05/18 00:07:54;;;;;;;;;8.00;7.67;;;;;;;;5103394;27;45339;-75
2022/05/18 00:10:19;;;;;;;;;11.00;11.00;;;;;;;;5103017;27;45550;-75
2022/05/18 00:12:45;;;;;;;;;8.33;8.33;;;;;;;;5101845;27;47364;-75
2022/05/18 00:15:11;;;;;;;;;9.33;9.33;;;;;;;;5108623;27;45384;-74
2022/05/18 00:17:37;;;;;;;;;9.33;9.00;;;;;;;;5124059;27;45447;-74
2022/05/18 00:20:03;;;;;;;;;9.67;9.33;;;;;;;;5123798;27;45452;-74
2022/05/18 00:22:28;;;;;;;;;11.00;10.00;;;;;;;;5123481;27;48081;-75
2022/05/18 00:24:53;;;;;;;;;10.67;9.67;;;;;;;;5123660;27;45257;-75
2022/05/18 00:27:19;;;;;;;;;10.00;9.00;;;;;;;;5123638;27;45463;-75
2022/05/18 00:29:44;;;;;;;;;12.00;11.33;;;;;;;;5123800;27;46156;-75
2022/05/18 00:32:10;;;;;;;;;10.67;10.67;;;;;;;;5123375;27;46441;-75
2022/05/18 00:34:35;;;;;;;;;9.67;9.67;;;;;;;;5123680;27;45287;-75
2022/05/18 00:37:00;;;;;;;;;8.67;8.33;;;;;;;;5123668;27;45429;-74
2022/05/18 00:39:25;;;;;;;;;9.67;9.00;;;;;;;;5122005;27;46087;-74
2022/05/18 00:41:50;;;;;;;;;11.00;11.00;;;;;;;;5123229;27;46104;-74
2022/05/18 00:44:16;;;;;;;;;12.33;12.33;;;;;;;;5123487;27;45329;-74
2022/05/18 00:46:41;;;;;;;;;9.00;8.00;;;;;;;;5122397;27;45364;-75
2022/05/18 00:49:07;;;;;;;;;10.33;8.67;;;;;;;;5123249;27;45486;-74
2022/05/18 00:51:53;;;;;;;;;12.67;10.67;;;;;;;;5121919;27;47196;-74
2022/05/18 00:54:22;;;;;;;;;10.00;10.00;;;;;;;;5123319;27;45235;-75
2022/05/18 00:56:54;;;;;;;;;9.33;9.33;;;;;;;;5123139;27;45372;-75
2022/05/18 00:59:24;;;;;;;;;10.67;10.00;;;;;;;;5123164;27;45276;-74
2022/05/18 01:01:50;;;;;;;;;11.33;11.33;;;;;;;;5123074;27;46176;-74
2022/05/18 01:04:16;;;;;;;;;9.33;9.00;;;;;;;;5122298;27;45363;-74
2022/05/18 01:07:02;;;;;;;;;11.67;11.00;;;;;;;;5123022;27;45261;-75
2022/05/18 01:09:27;;;;;;;;;7.00;7.00;;;;;;;;5121698;27;46003;-75
2022/05/18 01:11:52;;;;;;;;;12.00;11.00;;;;;;;;5121306;27;48039;-74
2022/05/18 01:14:26;;;;;;;;;10.00;9.67;;;;;;;;5123000;27;45197;-74
2022/05/18 01:16:53;;;;;;;;;10.33;10.00;;;;;;;;5102969;27;45163;-75
2022/05/18 01:19:30;;;;;;;;;9.33;8.33;;;;;;;;5102204;27;45578;-74
2022/05/18 01:22:03;;;;;;;;;11.33;11.00;;;;;;;;5101983;27;45592;-74
2022/05/18 01:24:32;;;;;;;;;11.67;10.33;;;;;;;;5100702;27;46062;-74
2022/05/18 01:27:00;;;;;;;;;11.00;11.00;;;;;;;;5102039;27;45321;-75
2022/05/18 01:29:26;;;;;;;;;9.33;9.00;;;;;;;;5101994;27;45472;-75
2022/05/18 01:31:54;;;;;;;;;13.33;10.00;;;;;;;;5101619;27;45391;-74
2022/05/18 01:34:21;;;;;;;;;9.67;9.67;;;;;;;;5101916;27;45323;-74
2022/05/18 01:36:47;;;;;;;;;11.33;11.00;;;;;;;;5101986;27;45432;-74
2022/05/18 01:39:39;;;;;;;;;8.67;8.67;;;;;;;;5100155;27;46217;-75
2022/05/18 01:42:23;;;;;;;;;10.00;9.67;;;;;;;;5100328;27;45250;-74
2022/05/18 01:44:49;;;;;;;;;11.00;10.67;;;;;;;;5101937;27;45224;-75
2022/05/18 01:47:14;;;;;;;;;12.33;11.67;;;;;;;;5101706;27;45266;-75
2022/05/18 01:49:40;;;;;;;;;10.00;9.33;;;;;;;;5101834;27;45307;-74
2022/05/18 01:52:06;;;;;;;;;11.67;11.67;;;;;;;;5101533;27;46118;-74
2022/05/18 01:54:39;;;;;;;;;8.67;8.67;;;;;;;;5101580;27;45350;-74
2022/05/18 01:57:04;;;;;;;;;11.33;11.33;;;;;;;;5101643;27;45329;-75
2022/05/18 01:59:29;;;;;;;;;10.33;10.33;;;;;;;;5101381;27;46454;-75
2022/05/18 02:01:55;;;;;;;;;14.00;11.67;;;;;;;;5101622;27;45395;-74
2022/05/18 02:04:20;;;;;;;;;11.67;11.67;;;;;;;;5100417;27;45981;-75
2022/05/18 02:06:45;;;;;;;;;13.67;12.33;;;;;;;;5101566;27;45184;-75
2022/05/18 02:09:10;;;;;;;;;12.00;11.33;;;;;;;;5101446;27;45239;-74
2022/05/18 02:11:36;;;;;;;;;12.33;11.00;;;;;;;;5099634;27;48021;-75
2022/05/18 02:14:01;;;;;;;;;10.00;10.00;;;;;;;;5101367;27;45409;-74
2022/05/18 02:16:26;;;;;;;;;12.00;12.00;;;;;;;;5116312;27;45343;-74
2022/05/18 02:18:52;;;;;;;;;11.33;11.33;;;;;;;;5121863;27;45529;-75
2022/05/18 02:21:17;;;;;;;;;13.00;12.00;;;;;;;;5120307;27;48044;-74
2022/05/18 02:23:43;;;;;;;;;10.33;10.33;;;;;;;;5120402;27;45226;-74
2022/05/18 02:26:11;;;;;;;;;11.67;11.67;;;;;;;;5121718;27;45599;-74
2022/05/18 02:28:36;;;;;;;;;12.00;12.00;;;;;;;;5121572;27;45455;-75
2022/05/18 02:31:02;;;;;;;;;12.67;12.00;;;;;;;;5121633;27;46347;-74
2022/05/18 02:33:27;;;;;;;;;10.67;10.67;;;;;;;;5121531;27;45362;-74
2022/05/18 02:35:52;;;;;;;;;11.00;11.00;;;;;;;;5121697;27;45303;-74
2022/05/18 02:38:18;;;;;;;;;13.67;13.00;;;;;;;;5119946;27;46285;-74
2022/05/18 02:40:43;;;;;;;;;14.67;12.00;;;;;;;;5121339;27;45307;-74
2022/05/18 02:43:09;;;;;;;;;12.67;11.67;;;;;;;;5120076;27;45234;-74
2022/05/18 02:45:34;;;;;;;;;13.33;13.33;;;;;;;;5121690;27;45265;-74
2022/05/18 02:47:59;;;;;;;;;13.67;13.00;;;;;;;;5121388;27;45221;-74
2022/05/18 02:50:26;;;;;;;;;11.67;11.00;;;;;;;;5121317;27;45273;-75
2022/05/18 02:52:51;;;;;;;;;11.67;10.00;;;;;;;;5121302;27;45237;-74
2022/05/18 02:58:00;;;;;;;;;13.33;13.33;;;;;;;;5121333;27;45362;-75
2022/05/18 03:00:25;;;;;;;;;12.00;12.00;;;;;;;;5119721;27;47283;-74
2022/05/18 03:02:50;;;;;;;;;14.67;12.67;;;;;;;;5121341;27;45222;-75
2022/05/18 03:05:16;;;;;;;;;11.00;11.00;;;;;;;;5121314;27;45777;-75
2022/05/18 03:07:41;;;;;;;;;9.67;9.67;;;;;;;;5119591;27;46140;-75
2022/05/18 03:10:07;;;;;;;;;14.00;13.00;;;;;;;;5120969;27;45386;-74
2022/05/18 03:12:33;;;;;;;;;14.00;13.33;;;;;;;;5120902;27;45324;-74
2022/05/18 03:14:59;;;;;;;;;9.67;9.67;;;;;;;;5117497;27;45291;-75
2022/05/18 03:17:24;;;;;;;;;9.33;9.33;;;;;;;;5098864;27;46168;-74
2022/05/18 03:19:49;;;;;;;;;12.00;10.33;;;;;;;;5098927;27;47108;-75
2022/05/18 03:24:58;;;;;;;;;10.00;10.00;;;;;;;;5100470;27;45308;-75
2022/05/18 03:27:24;;;;;;;;;12.00;10.67;;;;;;;;5099394;27;45277;-74
2022/05/18 03:29:49;;;;;;;;;10.00;10.00;;;;;;;;5098928;27;47028;-74
2022/05/18 03:32:15;;;;;;;;;10.33;10.33;;;;;;;;5100055;27;45321;-74
2022/05/18 03:34:40;;;;;;;;;9.67;9.33;;;;;;;;5100416;27;45429;-74
2022/05/18 03:37:05;;;;;;;;;6.33;5.33;;;;;;;;5098665;27;46522;-74
2022/05/18 03:39:31;;;;;;;;;8.67;7.33;;;;;;;;5099814;27;46214;-74
2022/05/18 03:41:57;;;;;;;;;6.33;6.33;;;;;;;;5099949;27;45373;-74
2022/05/18 03:44:22;;;;;;;;;7.00;6.33;;;;;;;;5099956;27;45356;-74
2022/05/18 03:46:47;;;;;;;;;7.33;7.00;;;;;;;;5098571;27;46012;-74
2022/05/18 03:49:13;;;;;;;;;9.00;9.00;;;;;;;;5098477;27;48248;-74
2022/05/18 03:51:38;;;;;;;;;9.67;7.33;;;;;;;;5099748;27;45345;-74
2022/05/18 03:54:04;;;;;;;;;8.00;8.00;;;;;;;;5100258;27;45252;-75
2022/05/18 03:56:29;;;;;;;;;7.67;7.67;;;;;;;;5099581;27;45345;-75
2022/05/18 03:58:55;;;;;;;;;9.00;9.00;;;;;;;;5098423;27;46698;-75
2022/05/18 04:01:20;;;;;;;;;7.00;7.00;;;;;;;;5099934;27;45360;-74
2022/05/18 04:03:46;;;;;;;;;8.33;7.33;;;;;;;;5099954;27;45474;-74
2022/05/18 04:06:12;;;;;;;;;8.67;8.67;;;;;;;;5099755;27;45350;-74
2022/05/18 04:08:38;;;;;;;;;8.33;8.00;;;;;;;;5099608;27;45396;-75
2022/05/18 04:11:03;;;;;;;;;8.00;7.00;;;;;;;;5098178;27;45688;-74
2022/05/18 04:13:28;;;;;;;;;5.00;5.00;;;;;;;;5099958;27;45318;-74
2022/05/18 04:15:54;;;;;;;;;7.33;7.33;;;;;;;;5109606;27;46121;-74
2022/05/18 04:18:20;;;;;;;;;7.00;7.00;;;;;;;;5120260;27;45376;-74
2022/05/18 04:20:45;;;;;;;;;6.33;6.33;;;;;;;;5120174;27;45691;-74
2022/05/18 04:23:12;;;;;;;;;5.00;5.00;;;;;;;;5120403;27;45322;-74
2022/05/18 04:25:37;;;;;;;;;5.00;4.67;;;;;;;;5118775;27;47132;-74
2022/05/18 04:28:02;;;;;;;;;8.33;7.00;;;;;;;;5119995;27;46234;-74
2022/05/18 04:30:28;;;;;;;;;8.33;8.33;;;;;;;;5120014;27;45555;-75
2022/05/18 04:32:54;;;;;;;;;6.33;6.33;;;;;;;;5119862;27;45488;-74
2022/05/18 04:35:20;;;;;;;;;7.33;5.00;;;;;;;;5120004;27;45502;-74
2022/05/18 04:37:45;;;;;;;;;4.33;4.33;;;;;;;;5119601;27;48009;-75
2022/05/18 04:40:11;;;;;;;;;4.00;4.00;;;;;;;;5123095;27;45335;-74
2022/05/18 04:42:36;;;;;;;;;3.00;3.00;;;;;;;;5123676;27;45330;-74
2022/05/18 04:45:02;;;;;;;;;2.33;2.00;;;;;;;;5123463;27;45323;-74
2022/05/18 04:47:27;;;;;;;;;5.33;5.33;;;;;;;;5123246;27;46315;-74
2022/05/18 04:49:53;;;;;;;;;6.00;6.00;;;;;;;;5123472;27;45365;-74
2022/05/18 04:52:18;;;;;;;;;6.00;6.00;;;;;;;;5122042;27;45312;-74
2022/05/18 04:54:44;;;;;;;;;4.67;4.67;;;;;;;;5123280;27;45384;-74
2022/05/18 04:57:09;;;;;;;;;6.00;5.00;;;;;;;;5119252;27;46303;-74
2022/05/18 04:59:34;;;;;;;;;6.33;6.00;;;;;;;;5089498;27;45392;-74
2022/05/18 05:01:59;;;;;;;;;6.33;6.00;;;;;;;;5081771;27;45231;-74
2022/05/18 05:04:24;;;;;;;;;6.00;6.00;;;;;;;;5082677;27;45761;-74
2022/05/18 05:06:50;;;;;;;;;5.33;5.00;;;;;;;;5081823;27;45944;-74
2022/05/18 05:09:15;;;;;;;;;6.00;6.00;;;;;;;;5082019;28;45309;-74
2022/05/18 05:11:40;;;;;;;;;6.00;4.67;;;;;;;;5080602;28;45276;-75
2022/05/18 05:14:05;;;;;;;;;5.33;4.67;;;;;;;;5081880;28;45332;-74
2022/05/18 05:16:31;;;;;;;;;4.67;4.67;;;;;;;;5115228;27;46032;-74
2022/05/18 05:18:57;;;;;;;;;10.33;7.33;;;;;;;;5122898;27;45271;-76
2022/05/18 05:21:22;;;;;;;;;6.00;6.00;;;;;;;;5123097;27;45253;-75
2022/05/18 05:23:47;;;;;;;;;7.00;7.00;;;;;;;;5122712;27;45275;-74
2022/05/18 05:26:13;;;;;;;;;4.67;4.67;;;;;;;;5122654;27;46283;-75
2022/05/18 05:28:38;;;;;;;;;5.67;5.67;;;;;;;;5121409;27;45285;-75
2022/05/18 05:31:04;;;;;;;;;5.00;5.00;;;;;;;;5123018;27;45227;-76
2022/05/18 05:33:30;;;;;;;;;6.33;6.33;;;;;;;;5122392;27;45254;-75
2022/05/18 05:35:55;;;;;;;;;5.33;4.67;;;;;;;;5122667;27;45587;-76
2022/05/18 05:38:20;;;;;;;;;3.67;3.67;;;;;;;;5121323;27;45403;-74
2022/05/18 05:40:46;;;;;;;;;4.67;4.67;;;;;;;;5084073;27;45254;-75
2022/05/18 05:43:12;;;;;;;;;8.00;6.00;;;;;;;;5083719;27;45493;-74
2022/05/18 05:45:37;;;;;;;;;5.67;5.67;;;;;;;;5079433;27;47181;-74
2022/05/18 05:48:03;;;;;;;;;3.00;3.00;;;;;;;;5080603;27;45382;-74
2022/05/18 05:50:30;;;;;;;;;5.00;5.00;;;;;;;;5081260;27;45396;-74
2022/05/18 05:52:56;;;;;;;;;7.00;6.00;;;;;;;;5081375;27;45492;-73
2022/05/18 05:55:21;;;;;;;;;4.00;4.00;;;;;;;;5079306;28;46094;-74
2022/05/18 05:57:46;;;;;;;;;3.00;3.00;;;;;;;;5081457;27;45283;-73
2022/05/18 06:00:12;;;;;;;;;3.67;3.67;;;;;;;;5080299;28;45306;-73
2022/05/18 06:02:37;;;;;;;;;3.00;2.67;;;;;;;;5081176;27;45311;-74
2022/05/18 06:05:03;;;;;;;;;4.33;4.33;;;;;;;;5081144;28;46550;-75
2022/05/18 06:07:29;;;;;;;;;3.00;3.00;;;;;;;;5079686;28;45296;-74
2022/05/18 06:09:54;;;;;;;;;5.00;5.00;;;;;;;;5079625;28;45254;-74
2022/05/18 06:12:20;;;;;;;;;2.67;2.67;;;;;;;;5080714;27;45141;-74
2022/05/18 06:14:45;;;;;;;;;4.67;3.00;;;;;;;;5082911;27;47234;-74
2022/05/18 06:17:11;;;;;;;;;2.00;2.00;;;;;;;;5122139;27;45625;-75
2022/05/18 06:19:36;;;;;;;;;3.00;3.00;;;;;;;;5122127;27;45434;-74
2022/05/18 06:22:02;;;;;;;;;5.67;2.67;;;;;;;;5108183;27;45330;-74
2022/05/18 06:24:27;;;;;;;;;3.00;3.00;;;;;;;;5080773;27;45433;-74
2022/05/18 06:26:55;;;;;;;;;3.33;2.00;;;;;;;;5080665;27;45534;-73
2022/05/18 06:29:20;;;;;;;;;4.00;4.00;;;;;;;;5081025;27;45355;-73
2022/05/18 06:31:46;;;;;;;;;3.00;3.00;;;;;;;;5079180;28;45372;-73
2022/05/18 06:34:11;;;;;;;;;2.00;2.00;;;;;;;;5080669;28;45977;-75
2022/05/18 06:36:36;;;;;;;;;3.00;3.00;;;;;;;;5080545;27;45331;-76
2022/05/18 06:39:02;;;;;;;;;3.00;3.00;;;;;;;;5080573;28;45352;-75
2022/05/18 06:41:28;;;;;;;;;3.00;3.00;;;;;;;;5078992;28;46289;-76
2022/05/18 06:43:57;;;;;;;;;3.67;3.67;;;;;;;;5079726;27;45313;-75
2022/05/18 06:46:23;;;;;;;;;4.00;4.00;;;;;;;;5079082;28;45384;-75
2022/05/18 06:48:48;;;;;;;;;3.00;3.00;;;;;;;;5080579;27;45408;-75
2022/05/18 06:51:15;;;;;;;;;4.00;4.00;;;;;;;;5080101;27;45599;-75
2022/05/18 06:53:41;;;;;;;;;3.33;3.33;;;;;;;;5078833;28;47167;-76
2022/05/18 06:56:06;;;;;;;;;7.00;7.00;;;;;;;;5080049;28;45485;-75
2022/05/18 06:58:32;;;;;;;;;4.33;4.33;;;;;;;;5080429;28;45470;-75
2022/05/18 07:00:57;;;;;;;;;4.00;4.00;;;;;;;;5078134;28;46414;-75
2022/05/18 07:03:22;;;;;;;;;3.00;2.67;;;;;;;;5080157;28;45311;-75
2022/05/18 07:05:47;;;;;;;;;2.33;2.33;;;;;;;;5078908;28;45284;-75
2022/05/18 07:08:13;;;;;;;;;2.00;2.00;;;;;;;;5080260;27;45306;-76
2022/05/18 07:10:39;;;;;;;;;2.00;2.00;;;;;;;;5079967;28;45229;-74
2022/05/18 07:13:04;;;;;;;;;4.00;2.33;;;;;;;;5080202;27;45274;-75
2022/05/18 07:15:29;;;;;;;;;26.67;24.33;;;;;;;;5094614;27;45254;-75
2022/05/18 07:17:55;;;;;;;;;4.00;4.00;;;;;;;;5121396;27;45235;-75
2022/05/18 07:20:20;;;;;;;;;2.67;2.67;;;;;;;;5121128;27;45770;-75
2022/05/18 07:22:45;;;;;;;;;3.33;3.33;;;;;;;;5120903;27;45454;-75
2022/05/18 07:25:11;;;;;;;;;2.67;2.00;;;;;;;;5120858;27;45283;-75
2022/05/18 07:27:36;;;;;;;;;3.67;3.67;;;;;;;;5120919;27;45194;-75
2022/05/18 07:30:04;;;;;;;;;3.00;3.00;;;;;;;;5120930;27;45457;-75
2022/05/18 07:32:29;;;;;;;;;3.00;3.00;;;;;;;;5120545;27;45570;-76
2022/05/18 07:34:54;;;;;;;;;4.00;4.00;;;;;;;;5120958;27;45365;-75
2022/05/18 07:37:20;;;;;;;;;6.33;4.67;;;;;;;;5120875;27;45356;-76
2022/05/18 07:39:45;;;;;;;;;3.33;3.33;;;;;;;;5120464;27;45312;-74
2022/05/18 07:42:11;;;;;;;;;4.00;4.00;;;;;;;;5120689;27;45369;-76
2022/05/18 07:44:36;;;;;;;;;5.00;5.00;;;;;;;;5120687;27;45364;-75
2022/05/18 07:47:03;;;;;;;;;4.33;3.67;;;;;;;;5119613;27;45403;-75
2022/05/18 07:49:28;;;;;;;;;4.00;4.00;;;;;;;;5120610;27;45314;-75
2022/05/18 07:51:53;;;;;;;;;20.00;16.67;;;;;;;;5118830;27;47104;-75
2022/05/18 07:54:18;;;;;;;;;4.00;4.00;;;;;;;;5120620;27;45202;-75
2022/05/18 07:56:44;;;;;;;;;4.00;2.67;;;;;;;;5120604;27;45159;-75
2022/05/18 07:59:10;;;;;;;;;3.67;2.67;;;;;;;;5119175;27;45960;-75
2022/05/18 08:01:36;;;;;;;;;3.33;3.33;;;;;;;;5120530;27;45226;-75
2022/05/18 08:04:02;;;;;;;;;4.00;2.00;;;;;;;;5120575;27;45265;-75
2022/05/18 08:06:27;;;;;;;;;2.00;1.33;;;;;;;;5120561;27;45324;-75
2022/05/18 08:08:53;;;;;;;;;1.00;1.00;;;;;;;;5120288;27;45558;-75
2022/05/18 08:16:47;;;;;;;;;3.33;2.33;;;;;;;;5103393;27;45349;-77
2022/05/18 08:19:13;;;;;;;;;4.33;4.00;;;;;;;;5088748;27;45284;-74
2022/05/18 08:21:39;;;;;;;;;3.00;2.67;;;;;;;;5101965;27;45400;-74
2022/05/18 08:24:05;;;;;;;;;53.67;39.00;;;;;;;;5103070;27;45382;-74
2022/05/18 08:26:30;;;;;;;;;38.00;32.00;;;;;;;;5102891;27;45280;-75
2022/05/18 08:28:55;;;;;;;;;66.75;49.75;;;;;;;;5102465;27;45483;-74
2022/05/18 08:31:23;;;;;;;;;38.67;32.00;;;;;;;;5101668;27;45310;-76
2022/05/18 08:33:48;;;;;;;;;22.00;21.00;;;;;;;;5089529;27;45288;-75
2022/05/18 08:36:14;;;;;;;;;4.33;4.00;;;;;;;;5082151;27;45441;-75
2022/05/18 08:38:39;;;;;;;;;2.00;2.00;;;;;;;;5082840;27;45347;-75
2022/05/18 08:41:12;;;;;;;;;2.00;2.00;;;;;;;;5082523;27;46159;-76
2022/05/18 08:43:39;;;;;;;;;42.67;33.67;;;;;;;;5083228;27;45524;-76
2022/05/18 08:46:23;;;;;;;;;29.00;24.33;;;;;;;;5086100;27;45484;-76
2022/05/18 08:49:12;;;;;;;;;49.33;39.00;;;;;;;;5082952;27;45510;-78
2022/05/18 08:51:48;;;;;;;;;3.67;3.67;;;;;;;;5075171;28;45492;-75
2022/05/18 08:54:21;;;;;;;;;59.50;47.50;;;;;;;;5091827;27;45419;-76
2022/05/18 08:56:49;;;;;;;;;36.33;29.67;;;;;;;;5087514;27;45459;-76
2022/05/18 08:59:20;;;;;;;;;16.33;13.00;;;;;;;;5085274;27;46176;-76
2022/05/18 09:01:46;;;;;;;;;6.67;6.33;;;;;;;;5081701;28;47232;-75
2022/05/18 09:04:12;;;;;;;;;6.00;4.67;;;;;;;;5081856;27;45383;-76
2022/05/18 09:06:46;;;;;;;;;3.00;3.00;;;;;;;;5081780;28;45282;-76
2022/05/18 09:12:01;;;;;;;;;5.00;3.00;;;;;;;;5081748;28;45445;-76
2022/05/18 09:14:27;;;;;;;;;5.00;3.00;;;;;;;;5080501;28;45295;-75
2022/05/18 09:17:01;;;;;;;;;4.33;4.33;;;;;;;;5121601;27;45313;-75
2022/05/18 09:19:36;;;;;;;;;3.67;3.67;;;;;;;;5121651;27;47494;-76
2022/05/18 09:22:21;;;;;;;;;4.67;4.67;;;;;;;;5122847;27;45445;-78
2022/05/18 09:24:59;;;;;;;;;3.33;3.33;;;;;;;;5105626;27;45368;-76
2022/05/18 09:27:28;;;;;;;;;3.33;2.33;;;;;;;;5100794;27;45369;-75
2022/05/18 09:29:58;;;;;;;;;4.00;3.33;;;;;;;;5102371;27;45340;-76
2022/05/18 09:32:33;;;;;;;;;4.67;4.67;;;;;;;;5100394;27;48050;-75
2022/05/18 09:35:01;;;;;;;;;21.00;18.00;;;;;;;;5102945;27;45304;-76
2022/05/18 09:37:37;;;;;;;;;12.67;10.67;;;;;;;;5104495;27;44619;-75
2022/05/18 09:40:13;;;;;;;;;12.67;12.33;;;;;;;;5106443;27;45236;-74
2022/05/18 09:42:42;;;;;;;;;99.25;93.00;;;;;;;;5099411;27;45817;-77
2022/05/18 09:45:13;;;;;;;;;26.33;24.67;;;;;;;;5109422;27;45152;-76
2022/05/18 09:47:59;;;;;;;;;3.00;3.00;;;;;;;;5094187;27;45357;-75
2022/05/18 09:50:26;;;;;;;;;8.00;8.00;;;;;;;;5107339;27;45895;-74
2022/05/18 09:52:52;;;;;;;;;4.00;3.67;;;;;;;;5104441;27;45344;-74
2022/05/18 09:55:19;;;;;;;;;3.33;3.33;;;;;;;;5102925;27;45902;-74
2022/05/18 09:57:48;;;;;;;;;5.00;5.00;;;;;;;;5106850;27;45594;-75
2022/05/18 10:00:22;;;;;;;;;6.00;6.00;;;;;;;;5105931;27;45475;-78
2022/05/18 10:08:33;;;;;;;;;2.67;2.67;;;;;;;;5078866;27;45377;-74
2022/05/18 10:11:00;;;;;;;;;3.33;3.33;;;;;;;;5091387;27;45494;-76
2022/05/18 10:13:29;;;;;;;;;15.67;13.00;;;;;;;;5109362;27;47206;-77
2022/05/18 10:16:13;;;;;;;;;7.33;5.67;;;;;;;;5118116;27;45222;-74
2022/05/18 10:18:42;;;;;;;;;48.67;40.33;;;;;;;;5097043;27;45451;-76
2022/05/18 10:21:18;;;;;;;;;18.00;16.33;;;;;;;;5103889;27;45458;-75
2022/05/18 10:23:59;;;;;;;;;8.67;7.67;;;;;;;;5104435;27;46042;-74
2022/05/18 10:26:29;;;;;;;;;68.50;55.75;;;;;;;;5105353;27;45302;-76
2022/05/18 10:29:03;;;;;;;;;24.67;22.67;;;;;;;;5106696;27;45284;-76
2022/05/18 10:31:31;;;;;;;;;5.00;5.00;;;;;;;;5106372;27;45270;-75
2022/05/18 10:34:08;;;;;;;;;4.67;4.67;;;;;;;;5106719;27;46179;-76
2022/05/18 10:36:41;;;;;;;;;26.67;25.00;;;;;;;;5100657;27;45501;-78
2022/05/18 10:39:07;;;;;;;;;34.00;30.00;;;;;;;;5084487;27;45516;-79
2022/05/18 10:41:42;;;;;;;;;51.00;42.00;;;;;;;;5083849;27;45392;-76
2022/05/18 10:44:16;;;;;;;;;29.67;27.33;;;;;;;;5083403;27;45370;-77
2022/05/18 10:46:45;;;;;;;;;3.33;3.33;;;;;;;;5084872;27;45269;-75
2022/05/18 10:49:27;;;;;;;;;20.00;18.33;;;;;;;;5090896;27;45414;-77
2022/05/18 10:51:52;;;;;;;;;10.33;10.33;;;;;;;;5098989;27;45965;-78
2022/05/18 10:54:25;;;;;;;;;5.00;5.00;;;;;;;;5082501;27;45403;-81
2022/05/18 10:56:51;;;;;;;;;35.00;29.67;;;;;;;;5083294;28;45200;-76
2022/05/18 10:59:20;;;;;;;;;26.00;24.33;;;;;;;;5093424;27;45426;-76
2022/05/18 11:01:56;;;;;;;;;19.00;16.33;;;;;;;;5100491;27;46410;-77
2022/05/18 11:04:26;;;;;;;;;20.33;18.00;;;;;;;;5090556;27;45333;-78
2022/05/18 11:06:53;;;;;;;;;19.00;18.00;;;;;;;;5095467;27;46197;-78
2022/05/18 11:09:20;;;;;;;;;8.33;7.00;;;;;;;;5090271;27;45555;-74
2022/05/18 11:11:52;;;;;;;;;2.67;2.67;;;;;;;;5099290;27;45401;-74
2022/05/18 11:14:20;;;;;;;;;3.00;3.00;;;;;;;;5102407;27;45727;-75
2022/05/18 11:17:04;;;;;;;;;43.67;36.33;;;;;;;;5119163;27;45243;-75
2022/05/18 11:19:55;;;;;;;;;64.50;53.75;;;;;;;;5123694;27;45220;-75
2022/05/18 11:22:31;;;;;;;;;6.00;5.00;;;;;;;;5104847;27;46336;-75
2022/05/18 11:25:08;;;;;;;;;4.33;4.33;;;;;;;;5124207;27;45970;-76
2022/05/18 11:27:42;;;;;;;;;3.33;3.33;;;;;;;;5123439;27;45659;-75
2022/05/18 11:30:11;;;;;;;;;2.00;2.00;;;;;;;;5122370;27;45410;-77
2022/05/18 11:32:38;;;;;;;;;2.00;2.00;;;;;;;;5124161;27;45479;-75
2022/05/18 11:35:06;;;;;;;;;2.00;2.00;;;;;;;;5123608;27;45330;-74
2022/05/18 11:37:32;;;;;;;;;2.67;2.67;;;;;;;;5127160;27;45306;-76
2022/05/18 11:40:16;;;;;;;;;18.67;16.67;;;;;;;;5122651;27;45601;-76
2022/05/18 11:42:58;;;;;;;;;18.33;17.00;;;;;;;;5120205;27;46225;-75
2022/05/18 11:45:35;;;;;;;;;20.00;20.00;;;;;;;;5120621;27;45247;-76
2022/05/18 11:48:15;;;;;;;;;3.00;2.33;;;;;;;;5123056;27;45285;-75
2022/05/18 11:50:51;;;;;;;;;2.67;2.67;;;;;;;;5128053;27;45459;-75
2022/05/18 11:53:29;;;;;;;;;3.67;3.33;;;;;;;;5127475;27;45333;-74
2022/05/18 11:56:02;;;;;;;;;2.33;2.33;;;;;;;;5125970;27;48467;-75
2022/05/18 11:59:00;;;;;;;;;3.00;3.00;;;;;;;;5127379;27;45335;-75
2022/05/18 12:01:41;;;;;;;;;2.00;2.00;;;;;;;;5127745;27;45290;-74
2022/05/18 12:04:24;;;;;;;;;2.33;2.33;;;;;;;;5128705;27;45416;-75
2022/05/18 12:06:49;;;;;;;;;4.00;4.00;;;;;;;;5126099;27;47440;-78
2022/05/18 12:09:33;;;;;;;;;2.67;2.67;;;;;;;;5127348;27;45404;-78
2022/05/18 12:11:58;;;;;;;;;33.33;28.33;;;;;;;;5127222;27;45367;-75
2022/05/18 12:14:42;;;;;;;;;48.67;41.00;;;;;;;;5127061;27;45311;-76
2022/05/18 12:17:22;;;;;;;;;41.00;34.67;;;;;;;;5084534;28;47391;-75
2022/05/18 12:19:52;;;;;;;;;58.33;46.00;;;;;;;;5085665;27;45339;-79
2022/05/18 12:22:37;;;;;;;;;58.33;45.67;;;;;;;;5087613;27;45238;-77
2022/05/18 12:25:03;;;;;;;;;22.67;18.00;;;;;;;;5088276;28;46174;-75
2022/05/18 12:27:28;;;;;;;;;4.00;4.00;;;;;;;;5086037;28;47427;-75
2022/05/18 12:29:56;;;;;;;;;2.33;2.33;;;;;;;;5087307;28;45353;-76
2022/05/18 12:32:22;;;;;;;;;3.33;3.33;;;;;;;;5088202;27;45262;-76
2022/05/18 12:35:03;;;;;;;;;9.33;9.33;;;;;;;;5085252;27;46814;-77
2022/05/18 12:37:46;;;;;;;;;6.33;6.00;;;;;;;;5085816;27;45338;-77
2022/05/18 12:40:15;;;;;;;;;5.00;5.00;;;;;;;;5086944;27;45230;-75
2022/05/18 12:42:45;;;;;;;;;55.00;43.67;;;;;;;;5087791;27;45308;-76
2022/05/18 12:45:30;;;;;;;;;11.00;9.33;;;;;;;;5087119;27;45540;-76
2022/05/18 12:48:14;;;;;;;;;3.67;3.67;;;;;;;;5087999;27;45538;-75
2022/05/18 12:50:42;;;;;;;;;3.67;3.00;;;;;;;;5088088;27;45260;-75
2022/05/18 12:53:13;;;;;;;;;14.00;13.00;;;;;;;;5088168;27;45329;-76
2022/05/18 12:55:42;;;;;;;;;7.00;7.00;;;;;;;;5085814;27;45500;-75
2022/05/18 12:58:10;;;;;;;;;20.00;19.00;;;;;;;;5084913;27;45412;-75
2022/05/18 13:00:44;;;;;;;;;2.67;2.67;;;;;;;;5097569;27;45396;-76
2022/05/18 13:03:09;;;;;;;;;2.67;2.67;;;;;;;;5101770;27;45349;-74
2022/05/18 13:05:51;;;;;;;;;3.33;2.67;;;;;;;;5091886;27;46288;-73
2022/05/18 13:08:17;;;;;;;;;2.33;2.33;;;;;;;;5082017;27;46128;-74
2022/05/18 13:11:00;;;;;;;;;18.67;18.00;;;;;;;;5082045;27;45457;-74
2022/05/18 13:13:26;;;;;;;;;16.33;16.00;;;;;;;;5082338;27;45341;-73
2022/05/18 13:15:52;;;;;;;;;0.00;0.00;;;;;;;;5103170;27;45924;-75
2022/05/18 13:18:18;;;;;;;;;3.67;3.67;;;;;;;;5123317;27;45334;-74
2022/05/18 13:20:46;;;;;;;;;13.00;11.00;;;;;;;;5123366;27;45288;-74
2022/05/18 13:23:27;;;;;;;;;4.67;3.00;;;;;;;;5122839;27;45598;-74
2022/05/18 13:25:54;;;;;;;;;2.00;2.00;;;;;;;;5123459;27;45312;-73
2022/05/18 13:28:20;;;;;;;;;3.00;2.00;;;;;;;;5101886;27;45594;-74
2022/05/18 13:30:47;;;;;;;;;3.00;3.00;;;;;;;;5100894;27;45466;-73
2022/05/18 13:33:13;;;;;;;;;2.00;2.00;;;;;;;;5114779;27;45471;-77
2022/05/18 13:35:39;;;;;;;;;1.33;1.33;;;;;;;;5102067;27;45344;-74
2022/05/18 13:38:20;;;;;;;;;2.00;2.00;;;;;;;;5101877;27;46019;-74
2022/05/18 13:40:49;;;;;;;;;0.00;0.00;;;;;;;;5101248;27;45505;-74
2022/05/18 13:43:16;;;;;;;;;0.33;0.33;;;;;;;;5101821;27;45294;-78
2022/05/18 13:45:47;;;;;;;;;1.00;1.00;;;;;;;;5101932;27;45417;-75
2022/05/18 13:48:14;;;;;;;;;2.00;2.00;;;;;;;;5101857;27;45280;-75
2022/05/18 13:50:42;;;;;;;;;1.33;1.33;;;;;;;;5102670;27;45320;-78
2022/05/18 13:53:27;;;;;;;;;3.00;3.00;;;;;;;;5101724;27;45376;-75
2022/05/18 13:55:58;;;;;;;;;1.00;1.00;;;;;;;;5101040;27;45323;-76
2022/05/18 13:58:24;;;;;;;;;2.00;2.00;;;;;;;;5101585;27;46148;-75
2022/05/18 14:00:54;;;;;;;;;2.00;2.00;;;;;;;;5101634;27;45329;-76
2022/05/18 14:03:21;;;;;;;;;1.33;1.00;;;;;;;;5101907;27;45364;-75
2022/05/18 14:05:48;;;;;;;;;0.00;0.00;;;;;;;;5101618;27;45372;-76
2022/05/18 14:08:25;;;;;;;;;0.67;0.67;;;;;;;;5100028;27;48492;-76
2022/05/18 14:10:50;;;;;;;;;1.00;0.00;;;;;;;;5099790;27;45503;-76
2022/05/18 14:13:16;;;;;;;;;2.00;2.00;;;;;;;;5101626;27;45318;-78
2022/05/18 14:15:41;;;;;;;;;1.67;1.67;;;;;;;;5111241;27;45270;-75
2022/05/18 14:18:12;;;;;;;;;3.67;3.00;;;;;;;;5121913;27;46200;-76
2022/05/18 14:20:41;;;;;;;;;2.33;2.33;;;;;;;;5122102;27;45347;-77
2022/05/18 14:23:10;;;;;;;;;2.00;2.00;;;;;;;;5122039;27;45344;-76
2022/05/18 14:25:37;;;;;;;;;2.00;2.00;;;;;;;;5121748;27;45383;-76
2022/05/18 14:28:08;;;;;;;;;1.00;1.00;;;;;;;;5120322;27;47208;-76
2022/05/18 14:30:35;;;;;;;;;3.00;2.33;;;;;;;;5120429;27;45470;-77
2022/05/18 14:33:12;;;;;;;;;3.67;3.33;;;;;;;;5121760;27;45309;-77
2022/05/18 14:35:40;;;;;;;;;2.00;2.00;;;;;;;;5119264;27;45383;-78
2022/05/18 14:38:07;;;;;;;;;2.00;2.00;;;;;;;;5081878;27;45429;-76
2022/05/18 14:40:36;;;;;;;;;1.00;1.00;;;;;;;;5079922;27;45380;-78
2022/05/18 14:43:01;;;;;;;;;1.67;1.33;;;;;;;;5080815;27;45362;-76
2022/05/18 14:45:31;;;;;;;;;2.67;2.67;;;;;;;;5080576;27;45563;-77
2022/05/18 14:48:07;;;;;;;;;2.00;2.00;;;;;;;;5080603;27;45288;-75
2022/05/18 14:50:40;;;;;;;;;2.00;2.00;;;;;;;;5080380;27;45451;-72
2022/05/18 14:53:21;;;;;;;;;1.67;1.33;;;;;;;;5079259;28;45350;-72
2022/05/18 14:55:57;;;;;;;;;1.00;1.00;;;;;;;;5078629;28;46156;-72
2022/05/18 14:58:49;;;;;;;;;2.00;2.00;;;;;;;;5080148;28;46160;-72
2022/05/18 15:01:33;;;;;;;;;2.00;2.00;;;;;;;;5079985;28;45412;-74
2022/05/18 15:04:02;;;;;;;;;1.33;1.33;;;;;;;;5079205;28;45745;-73